Time;durP1;ratioP1;P1;durP2;ratioP2;P2;SDS_P1;SDS_P2;PMS_P1;PMS_P2;Temp;Humidity;BMP_temperature;BMP_pressure;BME280_temperature;BME280_humidity;BME280_pressure;Samples;Min_cycle;Max_cycle;Signal;HPM_P1;HPM_P2
2020/12/31 00:01:40;;;;;;;33.22;23.90;;;;;;;;;;5137532;28;20206;-56
2020/12/31 00:04:27;;;;;;;8.57;5.78;;;;;;;;;;5138071;28;20180;-55
2020/12/31 00:06:59;;;;;;;7.55;5.40;;;;;;;;;;5137505;28;20265;-53
2020/12/31 00:09:26;;;;;;;10.23;5.60;;;;;;;;;;5132114;28;20209;-55
2020/12/31 00:14:57;;;;;;;8.25;5.57;;;;;;;;;;5136093;28;20270;-54
2020/12/31 00:17:24;;;;;;;8.52;5.10;;;;;;;;;;5124975;28;20251;-51
2020/12/31 00:20:10;;;;;;;8.45;5.65;;;;;;;;;;5136922;28;20198;-57
2020/12/31 00:22:38;;;;;;;8.40;6.13;;;;;;;;;;5145111;27;20230;-46
2020/12/31 00:25:07;;;;;;;8.98;6.85;;;;;;;;;;5144055;27;20288;-60
2020/12/31 00:27:34;;;;;;;14.23;8.20;;;;;;;;;;5138430;27;20225;-47
2020/12/31 00:30:01;;;;;;;10.95;6.97;;;;;;;;;;5155088;27;20177;-53
2020/12/31 00:32:55;;;;;;;108.07;69.13;;;;;;;;;;5157378;27;20208;-50
2020/12/31 00:35:24;;;;;;;39.80;26.33;;;;;;;;;;5157453;27;20218;-54
2020/12/31 00:37:55;;;;;;;18.65;9.85;;;;;;;;;;5158163;27;20250;-53
2020/12/31 00:40:29;;;;;;;45.85;33.05;;;;;;;;;;5158278;27;20201;-53
2020/12/31 00:42:58;;;;;;;70.57;50.22;;;;;;;;;;5137886;27;20207;-53
2020/12/31 00:45:24;;;;;;;24.02;16.05;;;;;;;;;;5136838;28;20214;-54
2020/12/31 00:47:57;;;;;;;17.83;10.88;;;;;;;;;;5135126;28;20582;-50
2020/12/31 00:50:24;;;;;;;22.60;14.75;;;;;;;;;;5128355;27;20187;-47
2020/12/31 00:52:51;;;;;;;8.25;5.10;;;;;;;;;;5131157;28;20246;-53
2020/12/31 00:55:26;;;;;;;9.23;5.38;;;;;;;;;;5136826;28;20206;-59
2020/12/31 00:57:55;;;;;;;8.02;5.35;;;;;;;;;;5136279;28;20206;-56
2020/12/31 01:00:22;;;;;;;6.45;5.00;;;;;;;;;;5136407;28;20274;-52
2020/12/31 01:03:14;;;;;;;7.15;5.88;;;;;;;;;;5136243;28;20215;-53
2020/12/31 01:05:41;;;;;;;7.95;4.90;;;;;;;;;;5147696;27;20238;-53
2020/12/31 01:08:08;;;;;;;7.97;5.13;;;;;;;;;;5157391;27;20187;-52
2020/12/31 01:10:36;;;;;;;9.23;5.40;;;;;;;;;;5156727;27;20215;-53
2020/12/31 01:13:04;;;;;;;16.48;6.05;;;;;;;;;;5153737;27;20195;-55
2020/12/31 01:15:40;;;;;;;6.78;4.60;;;;;;;;;;5152426;27;20220;-53
2020/12/31 01:18:07;;;;;;;11.00;5.97;;;;;;;;;;5154937;27;20199;-53
2020/12/31 01:20:33;;;;;;;7.53;5.50;;;;;;;;;;5156792;27;20186;-54
2020/12/31 01:23:00;;;;;;;10.63;6.20;;;;;;;;;;5156488;27;20222;-52
2020/12/31 01:25:27;;;;;;;7.78;5.40;;;;;;;;;;5156379;27;20216;-53
2020/12/31 01:30:58;;;;;;;8.90;5.70;;;;;;;;;;5148474;27;20192;-55
2020/12/31 01:33:25;;;;;;;11.00;5.70;;;;;;;;;;5152968;27;20197;-52
2020/12/31 01:35:52;;;;;;;7.60;5.00;;;;;;;;;;5148368;27;20206;-54
2020/12/31 01:38:19;;;;;;;7.75;4.95;;;;;;;;;;5155962;27;20211;-53
2020/12/31 01:40:47;;;;;;;7.30;4.80;;;;;;;;;;5157117;27;20203;-53
2020/12/31 01:43:23;;;;;;;38.88;25.77;;;;;;;;;;5156938;27;20298;-54
2020/12/31 01:45:50;;;;;;;90.57;60.20;;;;;;;;;;5156133;27;20201;-53
2020/12/31 01:48:17;;;;;;;51.15;37.58;;;;;;;;;;5150555;27;20186;-56
2020/12/31 01:50:45;;;;;;;28.70;20.73;;;;;;;;;;5156340;27;20214;-47
2020/12/31 01:53:12;;;;;;;14.77;8.05;;;;;;;;;;5148554;27;20199;-57
2020/12/31 01:55:39;;;;;;;8.55;5.57;;;;;;;;;;5156026;27;20210;-56
2020/12/31 01:58:35;;;;;;;8.23;5.03;;;;;;;;;;5151079;27;20265;-49
2020/12/31 02:01:03;;;;;;;6.15;4.60;;;;;;;;;;5137329;27;20207;-55
2020/12/31 02:03:47;;;;;;;9.20;5.57;;;;;;;;;;5155140;27;20300;-54
2020/12/31 02:09:18;;;;;;;7.30;5.35;;;;;;;;;;5160182;27;20192;-52
2020/12/31 02:11:45;;;;;;;9.52;5.88;;;;;;;;;;5177861;27;20206;-53
2020/12/31 02:14:12;;;;;;;8.98;5.43;;;;;;;;;;5177390;27;20325;-54
2020/12/31 02:16:39;;;;;;;8.65;6.25;;;;;;;;;;5166015;27;20211;-51
2020/12/31 02:19:06;;;;;;;9.90;6.28;;;;;;;;;;5162997;27;20179;-55
2020/12/31 02:21:37;;;;;;;12.32;9.18;;;;;;;;;;5157432;27;20195;-54
2020/12/31 02:24:05;;;;;;;12.00;7.50;;;;;;;;;;5151557;27;20206;-50
2020/12/31 02:26:32;;;;;;;10.48;6.30;;;;;;;;;;5163160;27;20230;-52
2020/12/31 02:29:02;;;;;;;10.95;6.75;;;;;;;;;;5163234;27;20421;-57
2020/12/31 02:31:29;;;;;;;10.45;6.75;;;;;;;;;;5163019;27;20195;-53
2020/12/31 02:33:57;;;;;;;14.52;10.15;;;;;;;;;;5159451;27;20182;-56
2020/12/31 02:36:28;;;;;;;10.63;7.13;;;;;;;;;;5163492;27;20202;-53
2020/12/31 02:38:55;;;;;;;6.50;4.30;;;;;;;;;;5162395;27;20186;-55
2020/12/31 02:41:23;;;;;;;8.60;5.53;;;;;;;;;;5160706;27;20203;-55
2020/12/31 02:43:50;;;;;;;8.95;5.47;;;;;;;;;;5162661;27;20231;-53
2020/12/31 02:46:20;;;;;;;10.70;4.85;;;;;;;;;;5161990;27;20206;-49
2020/12/31 02:48:47;;;;;;;8.32;4.93;;;;;;;;;;5163335;27;20197;-56
2020/12/31 02:51:24;;;;;;;7.95;5.97;;;;;;;;;;5160361;27;20206;-55
2020/12/31 02:53:51;;;;;;;9.25;5.78;;;;;;;;;;5147521;27;20266;-57
2020/12/31 02:56:21;;;;;;;7.03;5.05;;;;;;;;;;5162344;27;20194;-53
2020/12/31 02:58:50;;;;;;;9.77;6.35;;;;;;;;;;5161785;27;20224;-55
2020/12/31 03:01:17;;;;;;;10.52;7.43;;;;;;;;;;5162442;27;20203;-55
2020/12/31 03:03:47;;;;;;;9.68;7.53;;;;;;;;;;5162393;27;20221;-55
2020/12/31 03:06:14;;;;;;;8.52;5.50;;;;;;;;;;5162074;27;20240;-48
2020/12/31 03:08:41;;;;;;;9.20;5.95;;;;;;;;;;5162186;27;20209;-54
2020/12/31 03:11:45;;;;;;;11.73;6.35;;;;;;;;;;5162488;27;20282;-55
2020/12/31 03:14:13;;;;;;;12.88;10.07;;;;;;;;;;5159858;27;20234;-52
2020/12/31 03:16:39;;;;;;;16.08;7.00;;;;;;;;;;5162204;27;20194;-52
2020/12/31 03:19:13;;;;;;;9.52;6.68;;;;;;;;;;5163156;27;20210;-55
2020/12/31 03:21:41;;;;;;;7.47;4.35;;;;;;;;;;5163332;27;20205;-53
2020/12/31 03:24:14;;;;;;;12.82;9.70;;;;;;;;;;5162755;27;20222;-52
2020/12/31 03:26:41;;;;;;;8.70;6.03;;;;;;;;;;5154521;27;20206;-57
2020/12/31 03:29:11;;;;;;;6.63;4.18;;;;;;;;;;5152315;27;20206;-48
2020/12/31 03:31:57;;;;;;;10.07;7.15;;;;;;;;;;5159020;27;20201;-50
2020/12/31 03:34:28;;;;;;;10.30;5.63;;;;;;;;;;5157905;27;20330;-56
2020/12/31 03:36:55;;;;;;;9.20;6.72;;;;;;;;;;5158191;27;20264;-49
2020/12/31 03:39:23;;;;;;;11.40;8.52;;;;;;;;;;5148110;27;20248;-51
2020/12/31 03:41:52;;;;;;;11.77;8.95;;;;;;;;;;5158456;27;20211;-54
2020/12/31 03:44:28;;;;;;;8.98;6.00;;;;;;;;;;5142152;27;20222;-50
2020/12/31 03:46:55;;;;;;;20.98;14.27;;;;;;;;;;5152666;27;20205;-57
2020/12/31 03:49:25;;;;;;;26.65;18.23;;;;;;;;;;5158726;27;20211;-52
2020/12/31 03:51:52;;;;;;;17.55;10.85;;;;;;;;;;5158572;27;20207;-53
2020/12/31 03:54:18;;;;;;;8.40;6.03;;;;;;;;;;5158882;27;20195;-52
2020/12/31 03:56:46;;;;;;;7.80;5.78;;;;;;;;;;5158662;27;20203;-57
2020/12/31 03:59:13;;;;;;;11.18;5.13;;;;;;;;;;5150621;27;20195;-53
2020/12/31 04:01:40;;;;;;;8.63;5.13;;;;;;;;;;5159601;27;20187;-47
2020/12/31 04:04:08;;;;;;;8.45;4.57;;;;;;;;;;5159418;27;20199;-53
2020/12/31 04:06:36;;;;;;;5.25;4.15;;;;;;;;;;5152509;27;20207;-59
2020/12/31 04:09:17;;;;;;;6.30;4.50;;;;;;;;;;5142626;27;20554;-51
2020/12/31 04:11:44;;;;;;;6.85;4.25;;;;;;;;;;5158661;27;20211;-51
2020/12/31 04:14:11;;;;;;;8.02;4.78;;;;;;;;;;5157626;27;20221;-50
2020/12/31 04:17:01;;;;;;;5.07;3.90;;;;;;;;;;5147196;27;20213;-50
2020/12/31 04:19:28;;;;;;;9.35;4.95;;;;;;;;;;5137681;28;20206;-56
2020/12/31 04:21:56;;;;;;;8.05;4.90;;;;;;;;;;5156079;27;20342;-54
2020/12/31 04:24:25;;;;;;;7.72;4.80;;;;;;;;;;5156850;27;20197;-47
2020/12/31 04:26:52;;;;;;;6.00;4.70;;;;;;;;;;5158175;27;20207;-51
2020/12/31 04:29:19;;;;;;;10.98;5.28;;;;;;;;;;5157227;27;20207;-51
2020/12/31 04:32:15;;;;;;;7.68;4.32;;;;;;;;;;5158093;27;20224;-51
2020/12/31 04:34:42;;;;;;;8.65;5.00;;;;;;;;;;5146249;27;20232;-55
2020/12/31 04:37:10;;;;;;;7.43;5.15;;;;;;;;;;5158086;27;20194;-53
2020/12/31 04:39:38;;;;;;;8.70;5.40;;;;;;;;;;5157138;27;20217;-52
2020/12/31 04:42:05;;;;;;;6.82;4.75;;;;;;;;;;5157633;27;20230;-52
2020/12/31 04:44:32;;;;;;;6.15;4.63;;;;;;;;;;5158427;27;20207;-53
2020/12/31 04:47:19;;;;;;;7.35;5.18;;;;;;;;;;5157700;27;20197;-59
2020/12/31 04:49:50;;;;;;;9.25;4.82;;;;;;;;;;5158099;27;20202;-52
2020/12/31 04:52:18;;;;;;;12.88;5.93;;;;;;;;;;5157177;27;20190;-52
2020/12/31 04:54:45;;;;;;;11.07;7.18;;;;;;;;;;5157776;27;20202;-55
2020/12/31 04:57:12;;;;;;;10.00;7.30;;;;;;;;;;5158078;27;20214;-60
2020/12/31 04:59:45;;;;;;;6.97;4.70;;;;;;;;;;5157420;27;20202;-54
2020/12/31 05:02:12;;;;;;;6.20;4.78;;;;;;;;;;5157841;27;20223;-57
2020/12/31 05:04:39;;;;;;;11.75;5.13;;;;;;;;;;5158172;27;20190;-52
2020/12/31 05:07:08;;;;;;;6.53;4.60;;;;;;;;;;5158508;27;20187;-58
2020/12/31 05:09:36;;;;;;;8.45;5.18;;;;;;;;;;5157920;27;20354;-51
2020/12/31 05:12:29;;;;;;;13.38;5.55;;;;;;;;;;5148745;27;20191;-51
2020/12/31 05:14:56;;;;;;;8.95;5.60;;;;;;;;;;5122769;28;20203;-47
2020/12/31 05:17:23;;;;;;;7.43;4.95;;;;;;;;;;5116273;28;20196;-49
2020/12/31 05:19:56;;;;;;;7.35;5.25;;;;;;;;;;5129178;28;20214;-54
2020/12/31 05:22:23;;;;;;;7.90;5.60;;;;;;;;;;5136198;28;20226;-53
2020/12/31 05:24:51;;;;;;;12.05;7.90;;;;;;;;;;5136441;28;20298;-49
2020/12/31 05:27:34;;;;;;;8.88;4.53;;;;;;;;;;5136515;28;20223;-55
2020/12/31 05:30:01;;;;;;;9.82;6.53;;;;;;;;;;5135120;28;20207;-52
2020/12/31 05:32:29;;;;;;;7.90;5.57;;;;;;;;;;5123041;28;20217;-54
2020/12/31 05:35:10;;;;;;;7.57;4.32;;;;;;;;;;5132177;28;20654;-52
2020/12/31 05:37:37;;;;;;;6.07;4.45;;;;;;;;;;5130143;28;20206;-53
2020/12/31 05:40:06;;;;;;;6.38;4.45;;;;;;;;;;5133017;28;20204;-52
2020/12/31 05:42:34;;;;;;;14.15;9.00;;;;;;;;;;5135549;28;20283;-58
2020/12/31 05:45:01;;;;;;;8.05;5.47;;;;;;;;;;5134110;28;20202;-53
2020/12/31 05:47:51;;;;;;;11.73;6.85;;;;;;;;;;5135471;28;20195;-51
2020/12/31 05:50:19;;;;;;;8.45;5.55;;;;;;;;;;5135705;28;20208;-56
2020/12/31 05:52:47;;;;;;;7.10;4.20;;;;;;;;;;5135930;28;20194;-53
2020/12/31 05:55:16;;;;;;;6.30;4.65;;;;;;;;;;5136835;28;20204;-56
2020/12/31 05:57:47;;;;;;;5.47;3.90;;;;;;;;;;5135165;28;20219;-53
2020/12/31 06:00:16;;;;;;;5.00;3.67;;;;;;;;;;5135997;28;20218;-55
2020/12/31 06:02:44;;;;;;;8.32;5.05;;;;;;;;;;5135693;28;20211;-55
2020/12/31 06:05:13;;;;;;;6.38;3.95;;;;;;;;;;5135883;28;20226;-47
2020/12/31 06:07:56;;;;;;;9.90;4.65;;;;;;;;;;5135427;28;20258;-52
2020/12/31 06:10:27;;;;;;;8.27;4.68;;;;;;;;;;5135982;28;20187;-48
2020/12/31 06:13:03;;;;;;;7.15;4.55;;;;;;;;;;5142175;27;20196;-59
2020/12/31 06:15:46;;;;;;;7.60;5.55;;;;;;;;;;5135552;28;20187;-52
2020/12/31 06:18:17;;;;;;;6.25;3.92;;;;;;;;;;5136143;28;20267;-52
2020/12/31 06:20:47;;;;;;;4.70;3.70;;;;;;;;;;5135812;28;20206;-51
2020/12/31 06:23:14;;;;;;;5.15;3.72;;;;;;;;;;5135507;28;20216;-50
2020/12/31 06:25:42;;;;;;;4.75;3.30;;;;;;;;;;5135483;28;20218;-57
2020/12/31 06:28:13;;;;;;;5.35;3.50;;;;;;;;;;5135789;28;20187;-49
2020/12/31 06:30:41;;;;;;;5.40;3.80;;;;;;;;;;5136203;28;20228;-57
2020/12/31 06:33:11;;;;;;;3.88;2.55;;;;;;;;;;5136086;28;20293;-56
2020/12/31 06:35:39;;;;;;;5.55;3.55;;;;;;;;;;5135951;28;20214;-50
2020/12/31 06:38:06;;;;;;;9.68;4.50;;;;;;;;;;5135746;28;20179;-51
2020/12/31 06:40:43;;;;;;;4.85;3.60;;;;;;;;;;5135515;28;20202;-48
2020/12/31 06:43:12;;;;;;;4.35;2.92;;;;;;;;;;5135561;28;20250;-54
2020/12/31 06:45:43;;;;;;;4.72;3.05;;;;;;;;;;5135585;28;20253;-51
2020/12/31 06:48:31;;;;;;;9.63;3.33;;;;;;;;;;5135518;28;20205;-55
2020/12/31 06:50:59;;;;;;;4.93;4.28;;;;;;;;;;5134883;28;20530;-53
2020/12/31 06:53:32;;;;;;;7.18;4.28;;;;;;;;;;5135496;28;20212;-57
2020/12/31 06:56:01;;;;;;;6.72;3.35;;;;;;;;;;5134865;28;20221;-50
2020/12/31 06:58:28;;;;;;;6.05;4.13;;;;;;;;;;5134450;28;20299;-49
2020/12/31 07:01:01;;;;;;;9.27;3.72;;;;;;;;;;5134719;28;20206;-49
2020/12/31 07:03:57;;;;;;;8.93;4.45;;;;;;;;;;5134971;28;20227;-55
2020/12/31 07:06:29;;;;;;;7.25;5.03;;;;;;;;;;5138645;28;20213;-55
2020/12/31 07:08:59;;;;;;;5.95;3.63;;;;;;;;;;5138087;28;20222;-53
2020/12/31 07:11:30;;;;;;;8.18;4.63;;;;;;;;;;5138716;28;20228;-55
2020/12/31 07:13:57;;;;;;;6.70;4.57;;;;;;;;;;5139196;28;20191;-58
2020/12/31 07:16:56;;;;;;;12.13;4.25;;;;;;;;;;5139100;28;20194;-53
2020/12/31 07:19:23;;;;;;;10.65;5.30;;;;;;;;;;5138684;28;20211;-55
2020/12/31 07:21:50;;;;;;;9.15;5.53;;;;;;;;;;5139942;28;20195;-56
2020/12/31 07:24:32;;;;;;;9.05;5.82;;;;;;;;;;5127952;28;20239;-57
2020/12/31 07:27:00;;;;;;;7.68;5.32;;;;;;;;;;5117359;28;20191;-55
2020/12/31 07:29:29;;;;;;;11.93;7.40;;;;;;;;;;5122791;28;20304;-55
2020/12/31 07:32:04;;;;;;;9.55;5.88;;;;;;;;;;5139220;28;20258;-54
2020/12/31 07:34:31;;;;;;;9.02;6.38;;;;;;;;;;5139199;28;20204;-53
2020/12/31 07:37:02;;;;;;;9.05;5.82;;;;;;;;;;5138394;28;20222;-55
2020/12/31 07:39:29;;;;;;;8.32;6.05;;;;;;;;;;5138820;28;20222;-53
2020/12/31 07:42:13;;;;;;;7.90;5.28;;;;;;;;;;5139655;28;20183;-58
2020/12/31 07:44:54;;;;;;;9.05;5.53;;;;;;;;;;5139416;28;20210;-55
2020/12/31 07:47:30;;;;;;;9.38;6.05;;;;;;;;;;5138684;28;20825;-55
2020/12/31 07:49:58;;;;;;;10.07;5.57;;;;;;;;;;5138117;28;20216;-54
2020/12/31 07:52:24;;;;;;;9.45;5.95;;;;;;;;;;5137605;28;20217;-54
2020/12/31 07:54:51;;;;;;;7.70;5.30;;;;;;;;;;5138111;28;20387;-55
2020/12/31 07:57:19;;;;;;;8.73;5.93;;;;;;;;;;5136845;28;20234;-53
2020/12/31 07:59:46;;;;;;;8.13;5.15;;;;;;;;;;5136986;28;20206;-52
2020/12/31 08:05:17;;;;;;;7.43;5.70;;;;;;;;;;5137551;28;20205;-46
2020/12/31 08:07:44;;;;;;;10.18;5.68;;;;;;;;;;5137506;28;20179;-52
2020/12/31 08:10:14;;;;;;;7.65;5.30;;;;;;;;;;5136946;28;20499;-50
2020/12/31 08:12:53;;;;;;;7.47;5.10;;;;;;;;;;5136680;28;20242;-54
2020/12/31 08:15:21;;;;;;;9.50;4.88;;;;;;;;;;5136934;28;20202;-54
2020/12/31 08:17:49;;;;;;;8.05;5.60;;;;;;;;;;5136837;27;20195;-51
2020/12/31 08:20:18;;;;;;;8.60;5.32;;;;;;;;;;5157977;27;20248;-50
2020/12/31 08:22:52;;;;;;;7.53;5.60;;;;;;;;;;5157779;27;20432;-54
2020/12/31 08:25:23;;;;;;;10.90;5.70;;;;;;;;;;5158488;27;20284;-57
2020/12/31 08:27:51;;;;;;;8.45;5.75;;;;;;;;;;5158433;27;20254;-56
2020/12/31 08:30:41;;;;;;;8.20;6.00;;;;;;;;;;5158132;27;20221;-56
2020/12/31 08:33:08;;;;;;;7.70;5.53;;;;;;;;;;5157670;27;20202;-57
2020/12/31 08:35:39;;;;;;;10.63;5.93;;;;;;;;;;5158446;27;20212;-51
2020/12/31 08:38:23;;;;;;;9.65;7.40;;;;;;;;;;5157901;27;20210;-54
2020/12/31 08:40:51;;;;;;;8.55;5.78;;;;;;;;;;5157876;27;20261;-51
2020/12/31 08:43:20;;;;;;;8.23;5.95;;;;;;;;;;5157589;27;20225;-56
2020/12/31 08:45:57;;;;;;;7.90;5.50;;;;;;;;;;5157370;27;20207;-58
2020/12/31 08:48:25;;;;;;;7.70;5.25;;;;;;;;;;5143615;27;20256;-56
2020/12/31 08:51:02;;;;;;;9.55;6.00;;;;;;;;;;5136253;28;20196;-52
2020/12/31 08:53:30;;;;;;;8.40;6.03;;;;;;;;;;5135997;28;20218;-55
2020/12/31 08:55:57;;;;;;;9.57;6.20;;;;;;;;;;5135811;28;20190;-53
2020/12/31 08:58:28;;;;;;;8.30;5.70;;;;;;;;;;5136024;28;20234;-49
2020/12/31 09:00:55;;;;;;;7.90;5.78;;;;;;;;;;5135456;28;20211;-54
2020/12/31 09:03:23;;;;;;;7.03;5.45;;;;;;;;;;5135722;28;20231;-59
2020/12/31 09:05:56;;;;;;;7.72;5.72;;;;;;;;;;5135195;28;20217;-55
2020/12/31 09:08:23;;;;;;;8.02;5.30;;;;;;;;;;5135528;28;20264;-55
2020/12/31 09:11:10;;;;;;;9.93;5.75;;;;;;;;;;5135664;28;20233;-55
2020/12/31 09:13:39;;;;;;;8.70;5.70;;;;;;;;;;5115978;28;20187;-58
2020/12/31 09:16:28;;;;;;;7.25;5.35;;;;;;;;;;5115275;28;20208;-55
2020/12/31 09:18:58;;;;;;;8.65;5.88;;;;;;;;;;5115237;28;20208;-53
2020/12/31 09:21:33;;;;;;;8.27;6.05;;;;;;;;;;5114508;28;20200;-54
2020/12/31 09:24:12;;;;;;;11.63;5.78;;;;;;;;;;5115292;28;20215;-52
2020/12/31 09:26:51;;;;;;;10.10;5.97;;;;;;;;;;5115092;28;20192;-58
2020/12/31 09:29:19;;;;;;;9.70;5.45;;;;;;;;;;5116524;28;20218;-51
2020/12/31 09:31:46;;;;;;;7.57;5.75;;;;;;;;;;5116294;28;20172;-50
2020/12/31 09:34:13;;;;;;;9.00;5.88;;;;;;;;;;5114923;28;20226;-55
2020/12/31 09:36:40;;;;;;;9.73;5.88;;;;;;;;;;5114646;28;20190;-58
2020/12/31 09:39:15;;;;;;;7.18;5.15;;;;;;;;;;5114594;28;20204;-56
2020/12/31 09:41:45;;;;;;;8.95;5.60;;;;;;;;;;5116619;27;654596;-52
2020/12/31 09:44:19;;;;;;;10.45;6.50;;;;;;;;;;5155467;27;20234;-51
2020/12/31 09:46:48;;;;;;;9.65;5.30;;;;;;;;;;5156814;27;20205;-55
2020/12/31 09:49:15;;;;;;;7.60;5.72;;;;;;;;;;5156360;27;20387;-58
2020/12/31 09:51:52;;;;;;;7.07;5.60;;;;;;;;;;5156791;27;20185;-55
2020/12/31 09:54:19;;;;;;;7.22;5.00;;;;;;;;;;5156939;27;20285;-49
2020/12/31 09:56:46;;;;;;;7.38;4.75;;;;;;;;;;5156459;27;20207;-53
2020/12/31 09:59:37;;;;;;;6.30;4.15;;;;;;;;;;5155795;27;20210;-55
2020/12/31 10:02:06;;;;;;;11.13;4.97;;;;;;;;;;5154006;27;20221;-57
2020/12/31 10:04:33;;;;;;;7.65;5.28;;;;;;;;;;5156208;27;20226;-54
2020/12/31 10:07:26;;;;;;;4.78;3.35;;;;;;;;;;5156093;27;20213;-53
2020/12/31 10:09:54;;;;;;;5.90;4.95;;;;;;;;;;5153130;27;20226;-54
2020/12/31 10:12:21;;;;;;;7.20;4.20;;;;;;;;;;5156011;27;20459;-48
2020/12/31 10:14:58;;;;;;;6.90;4.25;;;;;;;;;;5155493;27;20201;-52
2020/12/31 10:17:27;;;;;;;5.30;3.70;;;;;;;;;;5140672;28;20260;-54
2020/12/31 10:19:56;;;;;;;5.05;3.70;;;;;;;;;;5135494;28;20191;-50
2020/12/31 10:22:33;;;;;;;6.95;4.20;;;;;;;;;;5134603;28;20202;-58
2020/12/31 10:25:00;;;;;;;6.93;4.45;;;;;;;;;;5135112;28;20199;-53
2020/12/31 10:27:26;;;;;;;5.72;3.88;;;;;;;;;;5135648;28;20214;-55
2020/12/31 10:30:18;;;;;;;8.05;4.35;;;;;;;;;;5135332;28;20188;-53
2020/12/31 10:32:46;;;;;;;6.22;4.10;;;;;;;;;;5135149;28;20190;-54
2020/12/31 10:35:15;;;;;;;6.00;3.50;;;;;;;;;;5135498;28;20187;-51
2020/12/31 10:37:49;;;;;;;5.28;3.92;;;;;;;;;;5137599;28;20202;-56
2020/12/31 10:40:16;;;;;;;6.15;3.20;;;;;;;;;;5139973;28;20191;-54
2020/12/31 10:43:04;;;;;;;6.57;4.20;;;;;;;;;;5139250;28;20226;-59
2020/12/31 10:45:31;;;;;;;5.50;3.70;;;;;;;;;;5133828;28;20207;-58
2020/12/31 10:47:58;;;;;;;5.38;3.63;;;;;;;;;;5137680;28;20192;-54
2020/12/31 10:50:33;;;;;;;5.53;4.03;;;;;;;;;;5131909;28;20199;-52
2020/12/31 10:53:00;;;;;;;5.40;3.60;;;;;;;;;;5131749;28;20210;-53
2020/12/31 10:55:28;;;;;;;4.95;3.60;;;;;;;;;;5138131;28;20234;-50
2020/12/31 10:58:14;;;;;;;6.20;4.50;;;;;;;;;;5139161;28;20192;-52
2020/12/31 11:00:44;;;;;;;6.72;3.90;;;;;;;;;;5138675;28;20198;-53
2020/12/31 11:03:11;;;;;;;4.43;2.95;;;;;;;;;;5137948;28;20323;-58
2020/12/31 11:05:40;;;;;;;5.88;3.95;;;;;;;;;;5137747;28;20270;-53
2020/12/31 11:08:10;;;;;;;8.40;4.57;;;;;;;;;;5138013;28;20248;-56
2020/12/31 11:10:37;;;;;;;5.70;4.30;;;;;;;;;;5138407;28;20207;-56
2020/12/31 11:13:10;;;;;;;7.10;3.67;;;;;;;;;;5138039;28;20184;-51
2020/12/31 11:15:48;;;;;;;6.22;3.92;;;;;;;;;;5138505;28;20239;-56
2020/12/31 11:18:16;;;;;;;6.35;4.28;;;;;;;;;;5137461;28;20289;-53
2020/12/31 11:20:42;;;;;;;6.90;3.90;;;;;;;;;;5137168;28;20263;-56
2020/12/31 11:23:09;;;;;;;5.80;3.85;;;;;;;;;;5116779;28;20242;-53
2020/12/31 11:25:36;;;;;;;6.35;4.20;;;;;;;;;;5117747;28;20190;-54
2020/12/31 11:28:03;;;;;;;6.57;3.90;;;;;;;;;;5116959;28;20207;-54
2020/12/31 11:30:31;;;;;;;8.50;5.30;;;;;;;;;;5117016;28;20200;-56
2020/12/31 11:33:10;;;;;;;8.10;3.97;;;;;;;;;;5139628;27;20193;-46
2020/12/31 11:35:38;;;;;;;6.10;4.65;;;;;;;;;;5157247;27;20235;-55
2020/12/31 11:38:06;;;;;;;7.45;4.47;;;;;;;;;;5148438;27;20226;-54
2020/12/31 11:40:35;;;;;;;11.18;5.60;;;;;;;;;;5156236;27;20186;-49
2020/12/31 11:43:02;;;;;;;5.25;3.70;;;;;;;;;;5137647;28;20245;-56
2020/12/31 11:45:44;;;;;;;7.18;4.72;;;;;;;;;;5137956;27;20187;-58
2020/12/31 11:48:17;;;;;;;7.80;4.75;;;;;;;;;;5138744;28;20194;-54
2020/12/31 11:50:45;;;;;;;7.88;4.07;;;;;;;;;;5137877;28;20187;-59
2020/12/31 11:53:12;;;;;;;5.13;3.70;;;;;;;;;;5138820;27;20263;-52
2020/12/31 11:56:11;;;;;;;9.05;4.50;;;;;;;;;;5138856;28;20227;-53
2020/12/31 11:58:53;;;;;;;6.63;4.70;;;;;;;;;;5137473;27;20424;-55
2020/12/31 12:01:20;;;;;;;8.60;4.95;;;;;;;;;;5138702;28;20210;-53
2020/12/31 12:04:03;;;;;;;10.38;7.45;;;;;;;;;;5138571;27;20225;-51
2020/12/31 12:07:30;;;;;;;5.13;4.10;;;;;;;;;;5136881;27;20286;-52
2020/12/31 12:09:59;;;;;;;6.85;4.55;;;;;;;;;;5135148;28;20188;-58
2020/12/31 12:12:26;;;;;;;7.20;3.80;;;;;;;;;;5137620;28;20187;-50
2020/12/31 12:15:20;;;;;;;5.60;3.28;;;;;;;;;;5138162;28;20254;-54
2020/12/31 12:17:49;;;;;;;6.75;3.65;;;;;;;;;;5137396;28;20222;-54
2020/12/31 12:20:18;;;;;;;6.53;2.95;;;;;;;;;;5137275;28;20219;-58
2020/12/31 12:22:48;;;;;;;4.38;2.95;;;;;;;;;;5137522;28;20203;-56
2020/12/31 12:25:15;;;;;;;5.20;2.95;;;;;;;;;;5138111;28;20203;-58
2020/12/31 12:27:42;;;;;;;6.45;3.60;;;;;;;;;;5137051;27;20191;-58
2020/12/31 12:30:10;;;;;;;5.93;3.55;;;;;;;;;;5138204;27;20214;-56
2020/12/31 12:32:38;;;;;;;4.38;3.15;;;;;;;;;;5133113;28;20195;-54
2020/12/31 12:35:05;;;;;;;6.28;3.55;;;;;;;;;;5116270;28;20233;-57
2020/12/31 12:37:59;;;;;;;6.85;3.58;;;;;;;;;;5133935;28;20195;-51
2020/12/31 12:40:27;;;;;;;5.70;2.75;;;;;;;;;;5116678;28;20210;-55
2020/12/31 12:42:53;;;;;;;5.88;2.78;;;;;;;;;;5117024;28;20232;-53
2020/12/31 12:45:26;;;;;;;5.75;3.65;;;;;;;;;;5135239;28;20213;-50
2020/12/31 12:47:53;;;;;;;6.28;4.00;;;;;;;;;;5136303;28;20207;-55
2020/12/31 12:50:20;;;;;;;6.78;3.40;;;;;;;;;;5136873;28;20195;-52
2020/12/31 12:53:02;;;;;;;6.63;4.20;;;;;;;;;;5136229;28;20188;-55
2020/12/31 12:55:30;;;;;;;4.35;3.00;;;;;;;;;;5136591;28;20207;-55
2020/12/31 12:57:58;;;;;;;5.28;3.40;;;;;;;;;;5135896;28;20249;-53
2020/12/31 13:00:29;;;;;;;4.43;2.72;;;;;;;;;;5133966;28;20267;-56
2020/12/31 13:02:59;;;;;;;10.93;5.20;;;;;;;;;;5127735;28;20228;-56
2020/12/31 13:05:27;;;;;;;4.55;3.15;;;;;;;;;;5135095;28;20227;-51
2020/12/31 13:07:55;;;;;;;5.35;3.33;;;;;;;;;;5136809;28;20238;-55
2020/12/31 13:10:21;;;;;;;11.68;2.63;;;;;;;;;;5135390;28;20208;-56
2020/12/31 13:12:49;;;;;;;6.40;2.85;;;;;;;;;;5135253;28;20263;-50
2020/12/31 13:15:16;;;;;;;7.28;3.35;;;;;;;;;;5136050;28;20222;-55
2020/12/31 13:17:44;;;;;;;4.55;2.88;;;;;;;;;;5136237;28;20191;-56
2020/12/31 13:20:11;;;;;;;6.13;3.58;;;;;;;;;;5135263;28;20261;-49
2020/12/31 13:22:40;;;;;;;8.75;3.70;;;;;;;;;;5135729;28;20214;-52
2020/12/31 13:25:08;;;;;;;3.90;2.22;;;;;;;;;;5136170;28;20203;-54
2020/12/31 13:27:35;;;;;;;3.33;2.60;;;;;;;;;;5135547;28;20196;-58
2020/12/31 13:30:15;;;;;;;3.92;2.83;;;;;;;;;;5152934;27;20201;-51
2020/12/31 13:32:41;;;;;;;4.30;2.50;;;;;;;;;;5155845;27;20206;-56
2020/12/31 13:35:09;;;;;;;4.45;2.50;;;;;;;;;;5155944;27;20206;-52
2020/12/31 13:37:43;;;;;;;4.90;2.80;;;;;;;;;;5155792;27;20229;-56
2020/12/31 13:40:11;;;;;;;3.83;2.47;;;;;;;;;;5155461;27;20392;-50
2020/12/31 13:42:48;;;;;;;3.05;2.25;;;;;;;;;;5156309;27;20191;-59
2020/12/31 13:45:37;;;;;;;5.38;2.75;;;;;;;;;;5156453;27;20561;-58
2020/12/31 13:48:05;;;;;;;6.00;2.67;;;;;;;;;;5114656;28;20362;-57
2020/12/31 13:50:32;;;;;;;5.50;2.90;;;;;;;;;;5115407;28;20196;-54
2020/12/31 13:53:02;;;;;;;7.72;3.22;;;;;;;;;;5114657;28;20192;-54
2020/12/31 13:55:30;;;;;;;4.53;2.85;;;;;;;;;;5112361;28;20246;-55
2020/12/31 13:57:58;;;;;;;6.90;3.97;;;;;;;;;;5114929;28;20583;-58
2020/12/31 14:03:31;;;;;;;5.30;3.72;;;;;;;;;;5118256;28;20229;-57
2020/12/31 14:06:05;;;;;;;6.38;2.72;;;;;;;;;;5121114;28;20219;-58
2020/12/31 14:11:42;;;;;;;6.47;3.75;;;;;;;;;;5148055;27;20322;-52
2020/12/31 14:14:10;;;;;;;6.35;3.10;;;;;;;;;;5155195;27;20203;-55
2020/12/31 14:17:07;;;;;;;5.00;2.95;;;;;;;;;;5154911;27;20215;-55
2020/12/31 14:19:34;;;;;;;4.18;3.05;;;;;;;;;;5134833;28;20247;-54
2020/12/31 14:22:05;;;;;;;4.85;3.45;;;;;;;;;;5133939;28;20200;-55
2020/12/31 14:24:32;;;;;;;4.90;2.60;;;;;;;;;;5133865;28;20270;-58
2020/12/31 14:27:11;;;;;;;6.13;3.35;;;;;;;;;;5134687;28;20238;-57
2020/12/31 14:29:49;;;;;;;6.60;3.22;;;;;;;;;;5134520;28;20187;-54
2020/12/31 14:32:16;;;;;;;5.78;3.50;;;;;;;;;;5134664;28;20197;-54
2020/12/31 14:34:46;;;;;;;6.72;2.88;;;;;;;;;;5127786;28;20212;-55
2020/12/31 14:37:26;;;;;;;10.32;3.35;;;;;;;;;;5124819;28;20194;-53
2020/12/31 14:39:53;;;;;;;7.55;3.78;;;;;;;;;;5148440;27;20239;-51
2020/12/31 14:42:20;;;;;;;6.68;3.78;;;;;;;;;;5142341;28;20207;-56
2020/12/31 14:44:47;;;;;;;5.40;3.00;;;;;;;;;;5134731;28;20290;-55
2020/12/31 14:47:14;;;;;;;4.70;2.97;;;;;;;;;;5139972;28;20199;-51
2020/12/31 14:49:41;;;;;;;5.90;3.80;;;;;;;;;;5156329;27;20190;-52
2020/12/31 14:52:27;;;;;;;7.03;4.05;;;;;;;;;;5168829;27;20199;-54
2020/12/31 14:54:56;;;;;;;5.90;3.25;;;;;;;;;;5156383;28;20245;-53
2020/12/31 14:57:23;;;;;;;7.07;3.78;;;;;;;;;;5150762;28;20203;-54
2020/12/31 14:59:52;;;;;;;8.15;3.20;;;;;;;;;;5154688;28;20192;-58
2020/12/31 15:02:18;;;;;;;4.75;3.28;;;;;;;;;;5153982;28;20199;-58
2020/12/31 15:04:48;;;;;;;5.97;3.10;;;;;;;;;;5156426;27;20234;-54
2020/12/31 15:07:21;;;;;;;6.30;3.75;;;;;;;;;;5150591;28;20373;-57
2020/12/31 15:09:48;;;;;;;5.72;3.20;;;;;;;;;;5152203;28;20203;-59
2020/12/31 15:12:18;;;;;;;5.63;3.85;;;;;;;;;;5143302;28;20200;-57
2020/12/31 15:20:48;;;;;;;5.55;3.47;;;;;;;;;;5143979;28;20206;-50
2020/12/31 15:23:41;;;;;;;6.03;2.70;;;;;;;;;;5156233;27;20210;-49
2020/12/31 15:26:26;;;;;;;5.55;3.70;;;;;;;;;;5127203;28;20307;-53
2020/12/31 15:28:54;;;;;;;4.32;3.20;;;;;;;;;;5121659;28;20192;-56
2020/12/31 15:31:21;;;;;;;4.32;2.63;;;;;;;;;;5138910;28;20231;-59